createdAt,value
2016-12-11T00:00:20.003Z,0
2016-12-11T00:02:01.716Z,0
2016-12-11T00:03:11.561Z,0
2016-12-11T00:04:21.391Z,0
2016-12-11T00:05:30.583Z,0
2016-12-11T00:06:40.362Z,0
2016-12-11T00:07:49.891Z,0
2016-12-11T00:08:59.390Z,0
2016-12-11T00:10:08.631Z,0
2016-12-11T00:11:18.113Z,0
2016-12-11T00:12:27.602Z,0
2016-12-11T00:13:37.457Z,0
2016-12-11T00:14:46.973Z,0
2016-12-11T00:15:56.772Z,0
2016-12-11T00:17:05.946Z,0
2016-12-11T00:18:15.727Z,0
2016-12-11T00:19:24.899Z,0
2016-12-11T00:20:34.688Z,0
2016-12-11T00:21:44.291Z,0
2016-12-11T00:22:54.075Z,0
2016-12-11T00:24:03.617Z,0
2016-12-11T00:25:13.420Z,0
2016-12-11T00:26:23.219Z,0
2016-12-11T00:27:33.019Z,0
2016-12-11T00:28:42.800Z,0
2016-12-11T00:29:52.553Z,0
2016-12-11T00:31:02.357Z,0
2016-12-11T00:32:11.866Z,0
2016-12-11T00:33:21.662Z,0
2016-12-11T00:34:31.142Z,0
2016-12-11T00:35:40.375Z,0
2016-12-11T00:36:50.170Z,0
2016-12-11T00:38:00.021Z,0
2016-12-11T00:39:09.826Z,0
2016-12-11T00:40:19.666Z,0
2016-12-11T00:41:29.186Z,0
2016-12-11T00:42:39.010Z,0
2016-12-11T00:43:48.800Z,0
2016-12-11T00:44:58.642Z,0
2016-12-11T00:46:08.121Z,0
2016-12-11T00:47:17.612Z,0
2016-12-11T00:48:27.397Z,0
2016-12-11T00:49:37.301Z,0
2016-12-11T00:50:46.790Z,0
2016-12-11T00:51:56.681Z,0
2016-12-11T00:53:06.494Z,0
2016-12-11T00:54:15.967Z,0
2016-12-11T00:55:25.777Z,0
2016-12-11T00:56:35.289Z,0
2016-12-11T00:57:45.139Z,0
2016-12-11T00:58:54.645Z,0
2016-12-11T01:00:04.502Z,0
2016-12-11T01:01:14.318Z,0
2016-12-11T01:02:24.168Z,0
2016-12-11T01:03:33.954Z,0
2016-12-11T01:04:43.920Z,0
2016-12-11T01:05:53.405Z,0
2016-12-11T01:07:03.228Z,0
2016-12-11T01:08:13.017Z,0
2016-12-11T01:09:22.822Z,0
2016-12-11T01:10:31.998Z,0
2016-12-11T01:11:41.802Z,0
2016-12-11T01:12:51.266Z,0
2016-12-11T01:14:01.108Z,0
2016-12-11T01:15:10.281Z,0
2016-12-11T01:16:19.751Z,0
2016-12-11T01:17:29.546Z,0
2016-12-11T01:18:39.332Z,0
2016-12-11T01:19:49.150Z,0
2016-12-11T01:20:58.620Z,0
2016-12-11T01:22:08.452Z,0
2016-12-11T01:23:18.330Z,0
2016-12-11T01:24:27.803Z,0
2016-12-11T01:25:37.606Z,0
2016-12-11T01:26:47.121Z,0
2016-12-11T01:27:56.930Z,0
2016-12-11T01:29:06.545Z,0
2016-12-11T01:30:16.348Z,0
2016-12-11T01:31:25.549Z,0
2016-12-11T01:32:35.382Z,0
2016-12-11T01:33:45.182Z,0
2016-12-11T01:34:55.000Z,0
2016-12-11T01:36:05.016Z,0
2016-12-11T01:37:14.505Z,0
2016-12-11T01:38:23.992Z,0
2016-12-11T01:39:33.773Z,0
2016-12-11T01:40:43.781Z,0
2016-12-11T01:41:53.279Z,0
2016-12-11T01:43:02.989Z,0
2016-12-11T01:44:12.936Z,0
2016-12-11T01:45:22.471Z,0
2016-12-11T01:46:31.971Z,0
2016-12-11T01:48:13.605Z,0
2016-12-11T01:49:22.766Z,0
2016-12-11T01:50:32.078Z,0
2016-12-11T01:51:41.892Z,0
2016-12-11T01:52:51.685Z,0
2016-12-11T01:54:01.170Z,0
2016-12-11T01:55:10.651Z,0
2016-12-11T01:56:20.202Z,0
2016-12-11T01:57:30.019Z,0
2016-12-11T01:58:39.804Z,0
2016-12-11T01:59:49.327Z,0
2016-12-11T02:00:59.195Z,0
2016-12-11T02:02:08.988Z,0
2016-12-11T02:03:18.500Z,0
2016-12-11T02:04:27.978Z,0
2016-12-11T02:05:37.804Z,0
2016-12-11T02:06:47.285Z,0
2016-12-11T02:07:57.090Z,0
2016-12-11T02:09:06.578Z,0
2016-12-11T02:10:16.469Z,0
2016-12-11T02:11:26.319Z,0
2016-12-11T02:12:36.100Z,0
2016-12-11T02:13:45.887Z,0
2016-12-11T02:14:55.661Z,0
2016-12-11T02:16:05.451Z,0
2016-12-11T02:17:14.677Z,0
2016-12-11T02:18:24.472Z,0
2016-12-11T02:19:34.281Z,0
2016-12-11T02:20:43.197Z,0
2016-12-11T02:21:53.015Z,0
2016-12-11T02:23:02.609Z,0
2016-12-11T02:24:12.402Z,0
2016-12-11T02:25:22.170Z,0
2016-12-11T02:26:31.949Z,0
2016-12-11T02:27:41.789Z,0
2016-12-11T02:28:51.264Z,0
2016-12-11T02:30:00.839Z,0
2016-12-11T02:31:10.312Z,0
2016-12-11T02:32:20.294Z,0
2016-12-11T02:33:29.780Z,0
2016-12-11T02:34:38.939Z,0
2016-12-11T02:35:48.438Z,0
2016-12-11T02:36:58.240Z,0
2016-12-11T02:38:08.018Z,0
2016-12-11T02:39:17.495Z,0
2016-12-11T02:40:27.287Z,0
2016-12-11T02:41:37.176Z,0
2016-12-11T02:42:47.021Z,0
2016-12-11T02:43:56.562Z,0
2016-12-11T02:45:06.043Z,0
2016-12-11T02:46:15.828Z,0
2016-12-11T02:47:25.643Z,0
2016-12-11T02:48:35.125Z,0
2016-12-11T02:49:44.912Z,0
2016-12-11T02:50:54.845Z,0
2016-12-11T02:52:04.702Z,0
2016-12-11T02:53:14.204Z,0
2016-12-11T02:54:23.975Z,0
2016-12-11T02:55:33.783Z,0
2016-12-11T02:56:43.273Z,0
2016-12-11T02:57:52.761Z,0
2016-12-11T02:59:02.616Z,0
2016-12-11T03:00:12.125Z,0
2016-12-11T03:01:21.926Z,0
2016-12-11T03:02:31.741Z,0
2016-12-11T03:03:41.522Z,0
2016-12-11T03:04:51.137Z,0
2016-12-11T03:06:00.904Z,0
2016-12-11T03:07:10.411Z,0
2016-12-11T03:08:19.931Z,0
2016-12-11T03:09:29.775Z,0
2016-12-11T03:10:39.544Z,0
2016-12-11T03:11:48.723Z,0
2016-12-11T03:12:58.495Z,0
2016-12-11T03:14:08.289Z,0
2016-12-11T03:15:18.052Z,0
2016-12-11T03:16:27.544Z,0
2016-12-11T03:17:37.348Z,0
2016-12-11T03:18:47.131Z,0
2016-12-11T03:19:56.655Z,0
2016-12-11T03:21:05.839Z,0
2016-12-11T03:22:15.613Z,0
2016-12-11T03:23:25.392Z,0
2016-12-11T03:24:35.208Z,0
2016-12-11T03:25:44.976Z,0
2016-12-11T03:26:54.447Z,0
2016-12-11T03:28:04.245Z,0
2016-12-11T03:29:14.038Z,0
2016-12-11T03:30:23.835Z,0
2016-12-11T03:31:33.702Z,0
2016-12-11T03:32:42.918Z,0
2016-12-11T03:33:52.741Z,0
2016-12-11T03:35:02.540Z,0
2016-12-11T03:36:12.325Z,0
2016-12-11T03:37:22.121Z,0
2016-12-11T03:38:31.905Z,0
2016-12-11T03:39:41.703Z,0
2016-12-11T03:40:51.513Z,0
2016-12-11T03:42:01.329Z,0
2016-12-11T03:43:10.794Z,0
2016-12-11T03:44:20.709Z,0
2016-12-11T03:45:30.528Z,0
2016-12-11T03:46:39.981Z,0
2016-12-11T03:47:49.768Z,0
2016-12-11T03:48:59.285Z,0
2016-12-11T03:50:09.105Z,0
2016-12-11T03:51:18.575Z,0
2016-12-11T03:52:28.040Z,0
2016-12-11T03:53:37.547Z,0
2016-12-11T03:54:47.320Z,0
2016-12-11T03:55:56.818Z,0
2016-12-11T03:57:06.318Z,0
2016-12-11T03:58:15.821Z,0
2016-12-11T03:59:25.589Z,0
2016-12-11T04:00:35.069Z,0
2016-12-11T04:01:44.359Z,0
2016-12-11T04:02:54.220Z,0
2016-12-11T04:04:04.053Z,0
2016-12-11T04:05:13.294Z,0
2016-12-11T04:06:22.772Z,0
2016-12-11T04:07:32.574Z,0
2016-12-11T04:08:42.353Z,0
2016-12-11T04:09:52.147Z,0
2016-12-11T04:11:01.925Z,0
2016-12-11T04:12:11.530Z,0
2016-12-11T04:13:21.303Z,0
2016-12-11T04:14:31.108Z,0
2016-12-11T04:15:40.593Z,0
2016-12-11T04:16:50.272Z,0
2016-12-11T04:17:59.774Z,0
2016-12-11T04:19:09.259Z,0
2016-12-11T04:20:18.433Z,0
2016-12-11T04:21:28.243Z,0
2016-12-11T04:22:37.445Z,0
2016-12-11T04:23:46.605Z,0
2016-12-11T04:24:56.421Z,0
2016-12-11T04:26:06.210Z,0
2016-12-11T04:27:16.125Z,0
2016-12-11T04:28:25.625Z,0
2016-12-11T04:29:35.433Z,0
2016-12-11T04:30:44.618Z,0
2016-12-11T04:31:54.104Z,0
2016-12-11T04:33:03.932Z,0
2016-12-11T04:34:13.151Z,0
2016-12-11T04:35:22.669Z,0
2016-12-11T04:36:31.842Z,0
2016-12-11T04:37:41.634Z,0
2016-12-11T04:38:51.169Z,0
2016-12-11T04:40:01.015Z,0
2016-12-11T04:41:10.874Z,0
2016-12-11T04:42:20.854Z,0
2016-12-11T04:43:30.327Z,0
2016-12-11T04:44:40.134Z,0
2016-12-11T04:45:49.912Z,0
2016-12-11T04:46:59.616Z,0
2016-12-11T04:48:09.133Z,0
2016-12-11T04:49:18.317Z,0
2016-12-11T04:50:28.215Z,0
2016-12-11T04:51:38.094Z,0
2016-12-11T04:52:47.278Z,0
2016-12-11T04:53:57.083Z,0
2016-12-11T04:55:06.942Z,0
2016-12-11T04:56:16.436Z,0
2016-12-11T04:57:25.941Z,0
2016-12-11T04:58:35.112Z,0
2016-12-11T04:59:44.929Z,0
2016-12-11T05:00:54.759Z,0
2016-12-11T05:02:04.593Z,0
2016-12-11T05:03:14.356Z,0
2016-12-11T05:04:24.204Z,0
2016-12-11T05:05:33.710Z,0
2016-12-11T05:06:43.190Z,0
2016-12-11T05:07:53.048Z,0
2016-12-11T05:09:02.530Z,0
2016-12-11T05:10:12.007Z,0
2016-12-11T05:11:21.820Z,0
2016-12-11T05:12:30.984Z,0
2016-12-11T05:13:40.497Z,0
2016-12-11T05:14:50.293Z,0
2016-12-11T05:16:00.082Z,0
2016-12-11T05:17:09.886Z,0
2016-12-11T05:18:19.660Z,0
2016-12-11T05:19:29.159Z,0
2016-12-11T05:20:38.336Z,0
2016-12-11T05:21:47.534Z,0
2016-12-11T05:22:56.749Z,0
2016-12-11T05:24:06.219Z,0
2016-12-11T05:25:15.694Z,0
2016-12-11T05:26:25.655Z,0
2016-12-11T05:27:35.485Z,0
2016-12-11T05:28:44.978Z,0
2016-12-11T05:29:54.459Z,0
2016-12-11T05:31:04.260Z,0
2016-12-11T05:32:13.745Z,0
2016-12-11T05:33:23.514Z,0
2016-12-11T05:34:33.006Z,0
2016-12-11T05:35:42.941Z,0
2016-12-11T05:36:52.132Z,0
2016-12-11T05:38:01.914Z,0
2016-12-11T05:39:10.767Z,0
2016-12-11T05:40:19.928Z,0
2016-12-11T05:41:29.760Z,0
2016-12-11T05:42:39.257Z,0
2016-12-11T05:43:49.085Z,0
2016-12-11T05:44:58.900Z,0
2016-12-11T05:46:08.384Z,0
2016-12-11T05:47:18.160Z,0
2016-12-11T05:48:27.683Z,0
2016-12-11T05:49:37.190Z,0
2016-12-11T05:50:46.348Z,0
2016-12-11T05:51:56.126Z,0
2016-12-11T05:53:05.602Z,0
2016-12-11T05:54:15.412Z,0
2016-12-11T05:55:25.204Z,0
2016-12-11T05:56:34.722Z,0
2016-12-11T05:57:44.509Z,0
2016-12-11T05:58:54.363Z,0
2016-12-11T06:00:03.871Z,0
2016-12-11T06:01:13.333Z,0
2016-12-11T06:02:22.885Z,0
2016-12-11T06:03:32.078Z,0
2016-12-11T06:04:41.957Z,0
2016-12-11T06:05:51.748Z,0
2016-12-11T06:07:01.529Z,0
2016-12-11T06:08:11.310Z,0
2016-12-11T06:09:21.107Z,0
2016-12-11T06:10:30.903Z,0
2016-12-11T06:11:40.375Z,0
2016-12-11T06:12:49.539Z,0
2016-12-11T06:13:59.019Z,0
2016-12-11T06:15:08.595Z,0
2016-12-11T06:16:18.400Z,0
2016-12-11T06:17:27.925Z,0
2016-12-11T06:18:37.868Z,0
2016-12-11T06:19:47.688Z,0
2016-12-11T06:20:57.485Z,0
2016-12-11T06:22:06.949Z,0
2016-12-11T06:23:16.438Z,0
2016-12-11T06:24:26.240Z,0
2016-12-11T06:25:36.054Z,0
2016-12-11T06:26:45.905Z,0
2016-12-11T06:27:55.374Z,0
2016-12-11T06:29:04.617Z,0
2016-12-11T06:30:14.430Z,0
2016-12-11T06:31:24.271Z,0
2016-12-11T06:32:33.781Z,0
2016-12-11T06:33:43.281Z,0
2016-12-11T06:34:52.739Z,0
2016-12-11T06:36:02.650Z,0
2016-12-11T06:37:12.459Z,0
2016-12-11T06:38:22.264Z,0
2016-12-11T06:39:31.746Z,0
2016-12-11T06:40:40.908Z,4
2016-12-11T06:41:50.488Z,4
2016-12-11T06:43:00.265Z,4
2016-12-11T06:44:09.725Z,4
2016-12-11T06:45:19.513Z,4
2016-12-11T06:46:29.026Z,4
2016-12-11T06:47:38.807Z,8
2016-12-11T06:48:48.300Z,8
2016-12-11T06:49:57.787Z,12
2016-12-11T06:51:06.984Z,12
2016-12-11T06:52:16.464Z,16
2016-12-11T06:53:25.938Z,16
2016-12-11T06:54:35.476Z,16
2016-12-11T06:55:44.951Z,20
2016-12-11T06:56:54.735Z,20
2016-12-11T06:58:03.921Z,28
2016-12-11T06:59:13.714Z,28
2016-12-11T07:00:23.531Z,36
2016-12-11T07:01:33.321Z,52
2016-12-11T07:02:43.103Z,48
2016-12-11T07:03:52.885Z,44
2016-12-11T07:05:02.385Z,52
2016-12-11T07:06:11.895Z,64
2016-12-11T07:07:21.380Z,76
2016-12-11T07:08:30.878Z,84
2016-12-11T07:09:40.754Z,92
2016-12-11T07:10:50.229Z,84
2016-12-11T07:11:59.826Z,76
2016-12-11T07:13:09.333Z,104
2016-12-11T07:14:18.863Z,100
2016-12-11T07:15:28.347Z,116
2016-12-11T07:16:37.816Z,140
2016-12-11T07:17:47.002Z,168
2016-12-11T07:18:56.808Z,208
2016-12-11T07:20:06.296Z,196
2016-12-11T07:21:16.079Z,168
2016-12-11T07:22:25.559Z,108
2016-12-11T07:23:35.347Z,84
2016-12-11T07:24:44.812Z,108
2016-12-11T07:25:54.722Z,152
2016-12-11T07:27:04.213Z,156
2016-12-11T07:28:14.001Z,156
2016-12-11T07:29:23.530Z,184
2016-12-11T07:30:33.013Z,148
2016-12-11T07:31:42.786Z,172
2016-12-11T07:32:52.580Z,164
2016-12-11T07:34:02.367Z,164
2016-12-11T07:35:12.143Z,244
2016-12-11T07:36:21.945Z,260
2016-12-11T07:37:31.753Z,280
2016-12-11T07:38:41.268Z,288
2016-12-11T07:39:51.121Z,300
2016-12-11T07:41:00.904Z,252
2016-12-11T07:42:10.687Z,224
2016-12-11T07:43:20.466Z,180
2016-12-11T07:44:29.734Z,244
2016-12-11T07:45:39.532Z,288
2016-12-11T07:46:48.990Z,324
2016-12-11T07:47:58.784Z,280
2016-12-11T07:49:08.569Z,216
2016-12-11T07:50:18.353Z,216
2016-12-11T07:51:28.158Z,264
2016-12-11T07:52:37.625Z,228
2016-12-11T07:53:47.106Z,180
2016-12-11T07:54:56.904Z,200
2016-12-11T07:56:06.693Z,212
2016-12-11T07:57:16.531Z,252
2016-12-11T07:58:25.696Z,280
2016-12-11T07:59:35.467Z,204
2016-12-11T08:00:45.319Z,200
2016-12-11T08:01:55.129Z,200
2016-12-11T08:03:04.908Z,248
2016-12-11T08:04:14.720Z,340
2016-12-11T08:05:24.510Z,248
2016-12-11T08:06:34.126Z,280
2016-12-11T08:07:43.918Z,276
2016-12-11T08:08:53.751Z,284
2016-12-11T08:10:03.554Z,308
2016-12-11T08:11:12.848Z,392
2016-12-11T08:12:22.337Z,344
2016-12-11T08:13:31.826Z,380
2016-12-11T08:14:41.666Z,416
2016-12-11T08:15:51.473Z,204
2016-12-11T08:17:00.953Z,204
2016-12-11T08:18:10.454Z,184
2016-12-11T08:19:20.247Z,172
2016-12-11T08:20:30.063Z,132
2016-12-11T08:21:39.850Z,272
2016-12-11T08:22:49.687Z,304
2016-12-11T08:23:59.465Z,472
2016-12-11T08:25:09.249Z,356
2016-12-11T08:26:19.057Z,352
2016-12-11T08:27:28.567Z,376
2016-12-11T08:28:38.365Z,324
2016-12-11T08:29:48.228Z,508
2016-12-11T08:30:57.763Z,436
2016-12-11T08:32:06.959Z,444
2016-12-11T08:33:16.842Z,324
2016-12-11T08:34:26.418Z,388
2016-12-11T08:35:36.205Z,372
2016-12-11T08:36:45.380Z,348
2016-12-11T08:37:54.985Z,532
2016-12-11T08:39:04.588Z,520
2016-12-11T08:40:14.074Z,796
2016-12-11T08:41:23.577Z,440
2016-12-11T08:42:33.047Z,504
2016-12-11T08:43:42.872Z,696
2016-12-11T08:44:52.362Z,1236
2016-12-11T08:46:01.848Z,2024
2016-12-11T08:47:11.631Z,2028
2016-12-11T08:48:21.113Z,2108
2016-12-11T08:49:30.685Z,2580
2016-12-11T08:50:40.343Z,1568
2016-12-11T08:51:50.118Z,1292
2016-12-11T08:52:59.906Z,1324
2016-12-11T08:54:09.718Z,1084
2016-12-11T08:55:19.511Z,1148
2016-12-11T08:56:29.284Z,804
2016-12-11T08:57:39.080Z,676
2016-12-11T08:58:48.550Z,668
2016-12-11T09:00:29.964Z,812
2016-12-11T09:01:39.752Z,996
2016-12-11T09:02:49.284Z,976
2016-12-11T09:03:58.756Z,836
2016-12-11T09:05:08.550Z,1232
2016-12-11T09:06:18.337Z,2776
2016-12-11T09:07:27.813Z,5332
2016-12-11T09:08:37.331Z,3680
2016-12-11T09:09:46.794Z,5044
2016-12-11T09:10:56.664Z,5980
2016-12-11T09:12:05.839Z,7084
2016-12-11T09:13:15.324Z,8300
2016-12-11T09:14:25.723Z,8136
2016-12-11T09:15:35.413Z,7724
2016-12-11T09:16:45.208Z,7532
2016-12-11T09:17:55.014Z,8532
2016-12-11T09:19:04.791Z,11068
2016-12-11T09:20:14.615Z,12364
2016-12-11T09:21:24.120Z,9772
2016-12-11T09:22:33.321Z,8372
2016-12-11T09:23:42.800Z,11108
2016-12-11T09:24:52.279Z,6944
2016-12-11T09:26:01.487Z,4964
2016-12-11T09:27:11.273Z,3580
2016-12-11T09:28:21.084Z,4096
2016-12-11T09:29:30.861Z,4596
2016-12-11T09:30:40.085Z,5008
2016-12-11T09:31:49.249Z,6060
2016-12-11T09:32:58.413Z,6792
2016-12-11T09:34:08.227Z,7868
2016-12-11T09:35:17.692Z,9708
2016-12-11T09:36:27.170Z,7440
2016-12-11T09:37:36.965Z,8456
2016-12-11T09:38:46.440Z,9220
2016-12-11T09:39:56.295Z,4928
2016-12-11T09:41:05.771Z,2976
2016-12-11T09:42:15.387Z,1780
2016-12-11T09:43:25.197Z,2204
2016-12-11T09:44:34.700Z,1688
2016-12-11T09:45:44.525Z,1688
2016-12-11T09:46:54.098Z,1804
2016-12-11T09:48:03.938Z,1380
2016-12-11T09:49:13.508Z,1216
2016-12-11T09:50:23.010Z,1388
2016-12-11T09:51:32.790Z,1416
2016-12-11T09:52:42.619Z,1536
2016-12-11T09:53:52.094Z,2240
2016-12-11T09:55:01.964Z,3408
2016-12-11T09:56:11.434Z,3048
2016-12-11T09:57:21.235Z,3204
2016-12-11T09:58:30.743Z,3092
2016-12-11T09:59:40.528Z,6036
2016-12-11T10:00:50.354Z,3808
2016-12-11T10:01:59.862Z,3724
2016-12-11T10:03:09.710Z,3032
2016-12-11T10:04:19.525Z,4016
2016-12-11T10:05:29.433Z,4136
2016-12-11T10:06:39.293Z,3396
2016-12-11T10:07:49.104Z,2532
2016-12-11T10:08:58.951Z,2764
2016-12-11T10:10:08.743Z,3176
2016-12-11T10:11:18.576Z,2576
2016-12-11T10:12:28.064Z,2980
2016-12-11T10:13:37.601Z,3228
2016-12-11T10:14:47.441Z,2580
2016-12-11T10:15:56.624Z,1924
2016-12-11T10:17:06.418Z,2284
2016-12-11T10:18:16.225Z,1912
2016-12-11T10:19:26.021Z,1648
2016-12-11T10:20:35.607Z,2124
2016-12-11T10:21:45.081Z,2560
2016-12-11T10:22:54.865Z,3004
2016-12-11T10:24:04.469Z,2836
2016-12-11T10:25:14.314Z,3028
2016-12-11T10:26:23.486Z,2468
2016-12-11T10:27:32.989Z,4604
2016-12-11T10:28:42.786Z,8644
2016-12-11T10:29:52.622Z,13312
2016-12-11T10:31:01.856Z,7740
2016-12-11T10:32:11.340Z,5420
2016-12-11T10:33:20.819Z,5820
2016-12-11T10:34:30.672Z,5052
2016-12-11T10:35:39.836Z,6124
2016-12-11T10:36:49.646Z,3692
2016-12-11T10:37:58.867Z,5704
2016-12-11T10:39:08.688Z,5076
2016-12-11T10:40:18.184Z,5124
2016-12-11T10:41:27.962Z,6108
2016-12-11T10:42:37.445Z,6236
2016-12-11T10:43:47.264Z,5100
2016-12-11T10:44:57.209Z,4200
2016-12-11T10:46:07.023Z,3680
2016-12-11T10:47:16.215Z,3548
2016-12-11T10:48:26.060Z,3300
2016-12-11T10:49:35.849Z,3544
2016-12-11T10:50:45.626Z,4728
2016-12-11T10:51:54.798Z,6472
2016-12-11T10:53:03.968Z,7864
2016-12-11T10:54:13.128Z,7328
2016-12-11T10:55:22.906Z,4796
2016-12-11T10:56:32.387Z,4092
2016-12-11T10:57:42.333Z,6508
2016-12-11T10:58:52.115Z,9388
2016-12-11T11:00:01.906Z,15168
2016-12-11T11:01:11.076Z,15360
2016-12-11T11:02:20.863Z,13068
2016-12-11T11:03:30.674Z,7416
2016-12-11T11:04:39.844Z,5048
2016-12-11T11:05:49.684Z,2692
2016-12-11T11:06:59.253Z,3120
2016-12-11T11:08:09.082Z,2928
2016-12-11T11:09:18.909Z,3156
2016-12-11T11:10:28.835Z,2952
2016-12-11T11:11:40.628Z,3612
2016-12-11T11:12:51.094Z,4096
2016-12-11T11:14:01.038Z,3580
2016-12-11T11:15:10.366Z,3972
2016-12-11T11:16:19.869Z,5100
2016-12-11T11:17:29.778Z,6432
2016-12-11T11:18:39.312Z,7752
2016-12-11T11:19:48.848Z,8224
2016-12-11T11:20:58.376Z,6008
2016-12-11T11:22:08.190Z,4712
2016-12-11T11:23:17.387Z,3556
2016-12-11T11:24:27.228Z,3192
2016-12-11T11:25:36.752Z,2840
2016-12-11T11:26:46.253Z,3496
2016-12-11T11:27:55.756Z,6272
2016-12-11T11:29:05.251Z,4076
2016-12-11T11:30:15.054Z,3472
2016-12-11T11:31:24.837Z,3532
2016-12-11T11:32:34.376Z,3592
2016-12-11T11:33:43.594Z,4404
2016-12-11T11:34:53.071Z,3960
2016-12-11T11:36:02.917Z,3736
2016-12-11T11:37:12.732Z,3516
2016-12-11T11:38:22.258Z,4676
2016-12-11T11:39:31.448Z,4984
2016-12-11T11:40:40.954Z,4392
2016-12-11T11:41:50.835Z,4484
2016-12-11T11:43:00.346Z,4924
2016-12-11T11:44:10.172Z,2668
2016-12-11T11:45:20.056Z,3704
2016-12-11T11:46:29.904Z,3636
2016-12-11T11:47:39.379Z,3764
2016-12-11T11:48:48.431Z,8084
2016-12-11T11:49:58.267Z,6412
2016-12-11T11:51:08.157Z,4088
2016-12-11T11:52:17.643Z,3000
2016-12-11T11:53:27.440Z,4412
2016-12-11T11:54:37.294Z,3900
2016-12-11T11:55:46.787Z,3644
2016-12-11T11:56:56.606Z,3196
2016-12-11T11:58:06.110Z,2880
2016-12-11T11:59:15.983Z,4032
2016-12-11T12:00:25.900Z,6392
2016-12-11T12:01:35.581Z,6240
2016-12-11T12:02:45.126Z,4420
2016-12-11T12:03:55.122Z,3264
2016-12-11T12:05:05.859Z,3324
2016-12-11T12:06:17.656Z,4032
2016-12-11T12:07:29.781Z,3132
2016-12-11T12:08:42.682Z,2708
2016-12-11T12:09:55.396Z,2100
2016-12-11T12:11:07.502Z,2108
2016-12-11T12:12:20.932Z,2596
2016-12-11T12:13:33.498Z,3760
2016-12-11T12:14:46.150Z,3200
2016-12-11T12:15:59.254Z,2536
2016-12-11T12:17:12.365Z,2028
2016-12-11T12:18:25.976Z,1664
2016-12-11T12:19:38.837Z,1592
2016-12-11T12:20:52.134Z,1608
2016-12-11T12:22:05.516Z,1496
2016-12-11T12:23:16.152Z,1716
2016-12-11T12:24:25.369Z,1776
2016-12-11T12:25:35.206Z,2240
2016-12-11T12:26:44.759Z,2996
2016-12-11T12:27:54.572Z,2596
2016-12-11T12:29:04.069Z,2924
2016-12-11T12:30:13.960Z,2472
2016-12-11T12:31:23.189Z,2180
2016-12-11T12:32:32.764Z,2520
2016-12-11T12:33:42.308Z,2076
2016-12-11T12:34:51.544Z,1772
2016-12-11T12:36:01.406Z,1728
2016-12-11T12:37:42.828Z,2064
2016-12-11T12:38:52.416Z,2368
2016-12-11T12:40:02.382Z,2676
2016-12-11T12:41:12.297Z,2180
2016-12-11T12:42:22.209Z,2212
2016-12-11T12:43:31.521Z,2260
2016-12-11T12:44:41.141Z,2724
2016-12-11T12:45:51.064Z,3020
2016-12-11T12:47:00.949Z,3016
2016-12-11T12:48:10.523Z,3332
2016-12-11T12:49:20.551Z,2108
2016-12-11T12:50:30.427Z,2704
2016-12-11T12:51:40.033Z,2384
2016-12-11T12:52:49.569Z,2464
2016-12-11T12:53:59.279Z,2396
2016-12-11T12:55:08.878Z,1896
2016-12-11T12:56:18.758Z,2592
2016-12-11T12:57:28.303Z,2544
2016-12-11T12:58:38.170Z,2348
2016-12-11T12:59:48.197Z,3748
2016-12-11T13:00:58.174Z,4292
2016-12-11T13:02:07.770Z,2920
2016-12-11T13:03:17.800Z,2260
2016-12-11T13:04:27.745Z,2392
2016-12-11T13:05:37.611Z,2784
2016-12-11T13:06:47.180Z,3480
2016-12-11T13:07:57.117Z,2868
2016-12-11T13:09:06.722Z,2372
2016-12-11T13:10:16.732Z,2176
2016-12-11T13:11:26.668Z,2092
2016-12-11T13:12:36.395Z,2388
2016-12-11T13:13:45.950Z,2492
2016-12-11T13:14:55.525Z,2396
2016-12-11T13:16:05.060Z,2180
2016-12-11T13:17:15.060Z,2708
2016-12-11T13:18:25.057Z,2592
2016-12-11T13:19:34.662Z,2436
2016-12-11T13:20:44.220Z,2320
2016-12-11T13:21:54.127Z,2268
2016-12-11T13:23:03.724Z,2568
2016-12-11T13:24:13.646Z,2840
2016-12-11T13:25:23.230Z,2920
2016-12-11T13:26:33.276Z,2932
2016-12-11T13:27:43.213Z,2868
2016-12-11T13:28:53.101Z,2724
2016-12-11T13:30:03.072Z,3120
2016-12-11T13:31:13.252Z,3572
2016-12-11T13:32:23.151Z,2864
2016-12-11T13:33:32.796Z,2600
2016-12-11T13:34:42.776Z,2108
2016-12-11T13:35:52.734Z,1916
2016-12-11T13:37:02.033Z,1924
2016-12-11T13:38:11.657Z,2052
2016-12-11T13:39:21.615Z,2532
2016-12-11T13:40:31.638Z,3060
2016-12-11T13:41:41.768Z,3912
2016-12-11T13:42:51.844Z,4300
2016-12-11T13:44:01.421Z,5300
2016-12-11T13:45:11.402Z,6440
2016-12-11T13:46:20.763Z,5908
2016-12-11T13:47:30.841Z,3992
2016-12-11T13:48:40.813Z,2840
2016-12-11T13:49:50.529Z,2024
2016-12-11T13:51:00.410Z,1692
2016-12-11T13:52:10.209Z,1772
2016-12-11T13:53:19.507Z,1764
2016-12-11T13:54:29.426Z,1740
2016-12-11T13:55:39.388Z,2152
2016-12-11T13:56:48.971Z,2528
2016-12-11T13:57:58.976Z,2812
2016-12-11T13:59:08.905Z,2740
2016-12-11T14:00:18.847Z,2924
2016-12-11T14:01:28.870Z,2916
2016-12-11T14:02:38.771Z,2684
2016-12-11T14:03:48.772Z,2760
2016-12-11T14:04:58.386Z,3076
2016-12-11T14:06:07.843Z,3136
2016-12-11T14:07:17.427Z,3376
2016-12-11T14:08:27.498Z,3268
2016-12-11T14:09:37.452Z,3552
2016-12-11T14:10:47.651Z,3696
2016-12-11T14:11:57.449Z,3664
2016-12-11T14:13:07.052Z,3240
2016-12-11T14:14:16.976Z,2564
2016-12-11T14:15:26.763Z,2624
2016-12-11T14:16:36.832Z,2864
2016-12-11T14:17:46.795Z,3504
2016-12-11T14:18:56.422Z,3880
2016-12-11T14:20:06.066Z,3572
2016-12-11T14:21:15.404Z,3564
2016-12-11T14:22:25.028Z,3476
2016-12-11T14:23:34.810Z,2968
2016-12-11T14:24:44.415Z,2520
2016-12-11T14:25:54.050Z,2040
2016-12-11T14:27:03.703Z,1712
2016-12-11T14:28:13.691Z,1856
2016-12-11T14:29:23.617Z,1840
2016-12-11T14:30:33.333Z,1556
2016-12-11T14:31:43.288Z,1412
2016-12-11T14:32:53.322Z,1424
2016-12-11T14:34:03.247Z,1068
2016-12-11T14:35:13.362Z,1344
2016-12-11T14:36:23.305Z,1380
2016-12-11T14:37:33.218Z,1344
2016-12-11T14:38:42.864Z,1256
2016-12-11T14:39:52.495Z,1140
2016-12-11T14:41:02.447Z,1192
2016-12-11T14:42:12.042Z,1248
2016-12-11T14:43:21.981Z,1172
2016-12-11T14:44:31.957Z,996
2016-12-11T14:45:41.567Z,872
2016-12-11T14:46:51.156Z,748
2016-12-11T14:48:01.066Z,684
2016-12-11T14:49:10.938Z,608
2016-12-11T14:50:20.580Z,520
2016-12-11T14:51:30.322Z,408
2016-12-11T14:53:13.541Z,220
2016-12-11T14:54:23.192Z,152
2016-12-11T14:55:32.811Z,160
2016-12-11T14:56:42.770Z,280
2016-12-11T14:57:52.682Z,264
2016-12-11T14:59:02.300Z,208
2016-12-11T15:00:11.878Z,192
2016-12-11T15:01:21.834Z,160
2016-12-11T15:02:31.729Z,184
2016-12-11T15:03:41.392Z,152
2016-12-11T15:04:51.313Z,128
2016-12-11T15:06:01.229Z,92
2016-12-11T15:07:11.184Z,104
2016-12-11T15:08:21.151Z,124
2016-12-11T15:09:31.072Z,112
2016-12-11T15:10:40.687Z,96
2016-12-11T15:11:50.822Z,84
2016-12-11T15:13:00.720Z,68
2016-12-11T15:14:10.857Z,56
2016-12-11T15:15:20.776Z,40
2016-12-11T20:01:35.676Z,0
2016-12-11T20:02:45.827Z,0
2016-12-11T20:03:56.207Z,0
2016-12-11T20:05:06.519Z,0
2016-12-11T20:06:17.144Z,0
2016-12-11T20:07:27.265Z,0
2016-12-11T20:08:37.756Z,0
2016-12-11T20:09:47.874Z,0
2016-12-11T20:10:58.210Z,0
2016-12-11T20:12:08.556Z,0
2016-12-11T20:13:18.755Z,0
2016-12-11T20:14:28.423Z,0
2016-12-11T20:15:38.765Z,0
2016-12-11T20:16:49.138Z,0
2016-12-11T20:17:59.590Z,0
2016-12-11T20:19:10.245Z,0
2016-12-11T20:20:20.573Z,0
2016-12-11T20:21:29.902Z,0
2016-12-11T20:22:40.181Z,0
2016-12-11T20:23:50.553Z,0
2016-12-11T20:25:00.996Z,0
2016-12-11T20:26:11.322Z,0
2016-12-11T20:27:21.677Z,0
2016-12-11T20:28:32.100Z,0
2016-12-11T20:29:42.221Z,0
2016-12-11T20:30:52.513Z,0
2016-12-11T20:32:02.965Z,0
2016-12-11T20:33:13.155Z,0
2016-12-11T20:34:22.839Z,0
2016-12-11T20:35:33.147Z,0
2016-12-11T20:36:43.013Z,0
2016-12-11T20:37:53.178Z,0
2016-12-11T20:39:02.600Z,0
2016-12-11T20:40:12.785Z,0
2016-12-11T20:41:22.868Z,0
2016-12-11T20:42:32.930Z,0
2016-12-11T20:43:42.751Z,0
2016-12-11T20:44:52.874Z,0
2016-12-11T20:46:03.104Z,0
2016-12-11T20:47:13.357Z,0
2016-12-11T20:48:23.513Z,0
2016-12-11T20:49:33.321Z,0
2016-12-11T20:50:43.069Z,0
2016-12-11T20:51:52.491Z,0
2016-12-11T20:53:02.227Z,0
2016-12-11T20:54:12.416Z,0
2016-12-11T20:55:22.457Z,0
2016-12-11T20:56:32.446Z,0
2016-12-11T20:57:42.730Z,0
2016-12-11T20:58:52.844Z,0
2016-12-11T21:00:02.648Z,0
2016-12-11T21:01:12.382Z,0
2016-12-11T21:02:22.103Z,0
2016-12-11T21:03:31.526Z,0
2016-12-11T21:04:41.557Z,0
2016-12-11T21:05:51.598Z,0
2016-12-11T21:07:01.295Z,0
2016-12-11T21:08:11.586Z,0
2016-12-11T21:09:21.667Z,0